sensor_id;sensor_type;location;lat;lon;timestamp;temperature;humidity
11848;DHT22;5983;49.966;8.052;2023-07-28T00:01:17;17.60;99.90
11848;DHT22;5983;49.966;8.052;2023-07-28T00:03:44;17.60;99.90
11848;DHT22;5983;49.966;8.052;2023-07-28T00:06:10;17.60;99.90
11848;DHT22;5983;49.966;8.052;2023-07-28T00:08:37;17.50;99.90
11848;DHT22;5983;49.966;8.052;2023-07-28T00:11:08;17.60;99.90
11848;DHT22;5983;49.966;8.052;2023-07-28T00:13:36;17.60;99.90
11848;DHT22;5983;49.966;8.052;2023-07-28T00:16:03;17.60;99.90
11848;DHT22;5983;49.966;8.052;2023-07-28T00:18:30;17.50;99.90
11848;DHT22;5983;49.966;8.052;2023-07-28T00:20:57;17.60;99.90
11848;DHT22;5983;49.966;8.052;2023-07-28T00:23:24;17.60;99.90
11848;DHT22;5983;49.966;8.052;2023-07-28T00:25:51;17.50;99.90
11848;DHT22;5983;49.966;8.052;2023-07-28T00:28:17;17.60;99.90
11848;DHT22;5983;49.966;8.052;2023-07-28T00:30:45;17.60;99.90
11848;DHT22;5983;49.966;8.052;2023-07-28T00:33:15;17.60;99.90
11848;DHT22;5983;49.966;8.052;2023-07-28T00:35:41;17.60;99.90
11848;DHT22;5983;49.966;8.052;2023-07-28T00:38:08;17.60;99.90
11848;DHT22;5983;49.966;8.052;2023-07-28T00:40:35;17.60;99.90
11848;DHT22;5983;49.966;8.052;2023-07-28T00:43:02;17.60;99.90
11848;DHT22;5983;49.966;8.052;2023-07-28T00:45:29;17.50;99.90
11848;DHT22;5983;49.966;8.052;2023-07-28T00:48:00;17.50;99.90
11848;DHT22;5983;49.966;8.052;2023-07-28T00:50:27;17.50;99.90
11848;DHT22;5983;49.966;8.052;2023-07-28T00:52:55;17.60;99.90
11848;DHT22;5983;49.966;8.052;2023-07-28T00:55:22;17.50;99.90
11848;DHT22;5983;49.966;8.052;2023-07-28T00:57:49;17.60;99.90
11848;DHT22;5983;49.966;8.052;2023-07-28T01:00:16;17.50;99.90
11848;DHT22;5983;49.966;8.052;2023-07-28T01:02:43;17.50;99.90
11848;DHT22;5983;49.966;8.052;2023-07-28T01:05:11;17.50;99.90
11848;DHT22;5983;49.966;8.052;2023-07-28T01:07:41;17.50;99.90
11848;DHT22;5983;49.966;8.052;2023-07-28T01:10:14;17.50;99.90
11848;DHT22;5983;49.966;8.052;2023-07-28T01:12:45;17.50;99.90
11848;DHT22;5983;49.966;8.052;2023-07-28T01:15:11;17.50;99.90
11848;DHT22;5983;49.966;8.052;2023-07-28T01:17:40;17.50;99.90
11848;DHT22;5983;49.966;8.052;2023-07-28T01:20:07;17.50;99.90
11848;DHT22;5983;49.966;8.052;2023-07-28T01:25:32;17.40;99.90
11848;DHT22;5983;49.966;8.052;2023-07-28T01:28:24;17.50;99.90
11848;DHT22;5983;49.966;8.052;2023-07-28T01:30:52;17.40;99.90
11848;DHT22;5983;49.966;8.052;2023-07-28T01:33:19;17.50;99.90
11848;DHT22;5983;49.966;8.052;2023-07-28T01:35:46;17.50;99.90
11848;DHT22;5983;49.966;8.052;2023-07-28T01:38:13;17.50;99.90
11848;DHT22;5983;49.966;8.052;2023-07-28T01:40:40;17.50;99.90
11848;DHT22;5983;49.966;8.052;2023-07-28T01:43:06;17.50;99.90
11848;DHT22;5983;49.966;8.052;2023-07-28T01:45:34;17.50;99.90
11848;DHT22;5983;49.966;8.052;2023-07-28T01:48:01;17.50;99.90
11848;DHT22;5983;49.966;8.052;2023-07-28T01:50:28;17.40;99.90
11848;DHT22;5983;49.966;8.052;2023-07-28T01:52:54;17.50;99.90
11848;DHT22;5983;49.966;8.052;2023-07-28T01:55:21;17.50;99.90
11848;DHT22;5983;49.966;8.052;2023-07-28T01:57:53;17.50;99.90
11848;DHT22;5983;49.966;8.052;2023-07-28T02:00:22;17.50;99.90
11848;DHT22;5983;49.966;8.052;2023-07-28T02:02:50;17.50;99.90
11848;DHT22;5983;49.966;8.052;2023-07-28T02:05:17;17.50;99.90
11848;DHT22;5983;49.966;8.052;2023-07-28T02:07:45;17.50;99.90
11848;DHT22;5983;49.966;8.052;2023-07-28T02:10:12;17.50;99.90
11848;DHT22;5983;49.966;8.052;2023-07-28T02:12:39;17.50;99.90
11848;DHT22;5983;49.966;8.052;2023-07-28T02:15:06;17.50;99.90
11848;DHT22;5983;49.966;8.052;2023-07-28T02:17:33;17.50;99.90
11848;DHT22;5983;49.966;8.052;2023-07-28T02:20:02;17.50;99.90
11848;DHT22;5983;49.966;8.052;2023-07-28T02:22:29;17.50;99.90
11848;DHT22;5983;49.966;8.052;2023-07-28T02:24:56;17.50;99.90
11848;DHT22;5983;49.966;8.052;2023-07-28T02:27:27;17.50;99.90
11848;DHT22;5983;49.966;8.052;2023-07-28T02:29:53;17.50;99.90
11848;DHT22;5983;49.966;8.052;2023-07-28T02:32:20;17.50;99.90
11848;DHT22;5983;49.966;8.052;2023-07-28T02:34:47;17.50;99.90
11848;DHT22;5983;49.966;8.052;2023-07-28T02:37:15;17.50;99.90
11848;DHT22;5983;49.966;8.052;2023-07-28T02:39:42;17.50;99.90
11848;DHT22;5983;49.966;8.052;2023-07-28T02:42:09;17.50;99.90
11848;DHT22;5983;49.966;8.052;2023-07-28T02:44:36;17.50;99.90
11848;DHT22;5983;49.966;8.052;2023-07-28T02:47:02;17.50;99.90
11848;DHT22;5983;49.966;8.052;2023-07-28T02:49:29;17.50;99.90
11848;DHT22;5983;49.966;8.052;2023-07-28T02:51:56;17.50;99.90
11848;DHT22;5983;49.966;8.052;2023-07-28T02:54:25;17.50;99.90
11848;DHT22;5983;49.966;8.052;2023-07-28T02:56:52;17.50;99.90
11848;DHT22;5983;49.966;8.052;2023-07-28T02:59:19;17.50;99.90
11848;DHT22;5983;49.966;8.052;2023-07-28T03:01:46;17.50;99.90
11848;DHT22;5983;49.966;8.052;2023-07-28T03:04:12;17.50;99.90
11848;DHT22;5983;49.966;8.052;2023-07-28T03:06:39;17.40;99.90
11848;DHT22;5983;49.966;8.052;2023-07-28T03:09:06;17.40;99.90
11848;DHT22;5983;49.966;8.052;2023-07-28T03:11:34;17.50;99.90
11848;DHT22;5983;49.966;8.052;2023-07-28T03:14:01;17.40;99.90
11848;DHT22;5983;49.966;8.052;2023-07-28T03:16:28;17.40;99.90
11848;DHT22;5983;49.966;8.052;2023-07-28T03:18:54;17.40;99.90
11848;DHT22;5983;49.966;8.052;2023-07-28T03:21:21;17.40;99.90
11848;DHT22;5983;49.966;8.052;2023-07-28T03:23:48;17.40;99.90
11848;DHT22;5983;49.966;8.052;2023-07-28T03:26:14;17.40;99.90
11848;DHT22;5983;49.966;8.052;2023-07-28T03:28:42;17.50;99.90
11848;DHT22;5983;49.966;8.052;2023-07-28T03:31:08;17.50;99.90
11848;DHT22;5983;49.966;8.052;2023-07-28T03:33:35;17.50;99.90
11848;DHT22;5983;49.966;8.052;2023-07-28T03:36:02;17.50;99.90
11848;DHT22;5983;49.966;8.052;2023-07-28T03:38:28;17.50;99.90
11848;DHT22;5983;49.966;8.052;2023-07-28T03:40:55;17.50;99.90
11848;DHT22;5983;49.966;8.052;2023-07-28T03:43:22;17.50;99.90
11848;DHT22;5983;49.966;8.052;2023-07-28T03:45:50;17.50;99.90
11848;DHT22;5983;49.966;8.052;2023-07-28T03:48:17;17.40;99.90
11848;DHT22;5983;49.966;8.052;2023-07-28T03:50:43;17.50;99.90
11848;DHT22;5983;49.966;8.052;2023-07-28T03:53:10;17.40;99.90
11848;DHT22;5983;49.966;8.052;2023-07-28T03:55:37;17.50;99.90
11848;DHT22;5983;49.966;8.052;2023-07-28T03:58:04;17.50;99.90
11848;DHT22;5983;49.966;8.052;2023-07-28T04:00:30;17.50;99.90
11848;DHT22;5983;49.966;8.052;2023-07-28T04:02:58;17.40;99.90
11848;DHT22;5983;49.966;8.052;2023-07-28T04:05:25;17.50;99.90
11848;DHT22;5983;49.966;8.052;2023-07-28T04:07:52;17.50;99.90
11848;DHT22;5983;49.966;8.052;2023-07-28T04:10:19;17.40;99.90
11848;DHT22;5983;49.966;8.052;2023-07-28T04:12:45;17.50;99.90
11848;DHT22;5983;49.966;8.052;2023-07-28T04:15:12;17.50;99.90
11848;DHT22;5983;49.966;8.052;2023-07-28T04:17:39;17.50;99.90
11848;DHT22;5983;49.966;8.052;2023-07-28T04:20:08;17.50;99.90
11848;DHT22;5983;49.966;8.052;2023-07-28T04:22:35;17.50;99.90
11848;DHT22;5983;49.966;8.052;2023-07-28T04:25:02;17.50;99.90
11848;DHT22;5983;49.966;8.052;2023-07-28T04:27:29;17.50;99.90
11848;DHT22;5983;49.966;8.052;2023-07-28T04:29:55;17.60;99.90
11848;DHT22;5983;49.966;8.052;2023-07-28T04:32:23;17.60;99.90
11848;DHT22;5983;49.966;8.052;2023-07-28T04:34:51;17.60;99.90
11848;DHT22;5983;49.966;8.052;2023-07-28T04:37:20;17.60;99.90
11848;DHT22;5983;49.966;8.052;2023-07-28T04:39:46;17.60;99.90
11848;DHT22;5983;49.966;8.052;2023-07-28T04:42:13;17.70;99.90
11848;DHT22;5983;49.966;8.052;2023-07-28T04:44:40;17.70;99.90
11848;DHT22;5983;49.966;8.052;2023-07-28T04:47:07;17.70;99.90
11848;DHT22;5983;49.966;8.052;2023-07-28T04:49:34;17.70;99.90
11848;DHT22;5983;49.966;8.052;2023-07-28T04:52:00;17.70;99.90
11848;DHT22;5983;49.966;8.052;2023-07-28T04:54:28;17.80;99.90
11848;DHT22;5983;49.966;8.052;2023-07-28T04:56:55;17.80;99.90
11848;DHT22;5983;49.966;8.052;2023-07-28T04:59:22;17.80;99.90
11848;DHT22;5983;49.966;8.052;2023-07-28T05:01:49;17.90;99.90
11848;DHT22;5983;49.966;8.052;2023-07-28T05:04:15;17.90;99.90
11848;DHT22;5983;49.966;8.052;2023-07-28T05:06:42;17.90;99.90
11848;DHT22;5983;49.966;8.052;2023-07-28T05:09:09;17.90;99.90
11848;DHT22;5983;49.966;8.052;2023-07-28T05:11:37;18.00;99.90
11848;DHT22;5983;49.966;8.052;2023-07-28T05:14:03;18.00;99.90
11848;DHT22;5983;49.966;8.052;2023-07-28T05:16:31;18.00;99.90
11848;DHT22;5983;49.966;8.052;2023-07-28T05:18:58;18.00;99.90
11848;DHT22;5983;49.966;8.052;2023-07-28T05:21:25;18.10;99.90
11848;DHT22;5983;49.966;8.052;2023-07-28T05:23:51;18.20;99.90
11848;DHT22;5983;49.966;8.052;2023-07-28T05:26:18;18.20;99.90
11848;DHT22;5983;49.966;8.052;2023-07-28T05:28:46;18.20;99.90
11848;DHT22;5983;49.966;8.052;2023-07-28T05:31:13;18.30;99.90
11848;DHT22;5983;49.966;8.052;2023-07-28T05:33:40;18.40;99.90
11848;DHT22;5983;49.966;8.052;2023-07-28T05:36:07;18.40;99.90
11848;DHT22;5983;49.966;8.052;2023-07-28T05:38:34;18.40;99.90
11848;DHT22;5983;49.966;8.052;2023-07-28T05:41:02;18.50;99.90
11848;DHT22;5983;49.966;8.052;2023-07-28T05:43:29;18.50;99.90
11848;DHT22;5983;49.966;8.052;2023-07-28T05:45:57;18.60;99.90
11848;DHT22;5983;49.966;8.052;2023-07-28T05:48:24;18.60;99.90
11848;DHT22;5983;49.966;8.052;2023-07-28T05:50:51;18.60;99.90
11848;DHT22;5983;49.966;8.052;2023-07-28T05:53:19;18.70;99.90
11848;DHT22;5983;49.966;8.052;2023-07-28T05:55:46;18.70;99.90
11848;DHT22;5983;49.966;8.052;2023-07-28T05:58:13;18.80;99.90
11848;DHT22;5983;49.966;8.052;2023-07-28T06:00:39;18.90;99.90
11848;DHT22;5983;49.966;8.052;2023-07-28T06:03:09;18.90;99.90
11848;DHT22;5983;49.966;8.052;2023-07-28T06:05:37;18.90;99.90
11848;DHT22;5983;49.966;8.052;2023-07-28T06:08:04;18.90;99.90
11848;DHT22;5983;49.966;8.052;2023-07-28T06:10:31;19.00;99.90
11848;DHT22;5983;49.966;8.052;2023-07-28T06:12:58;19.10;99.90
11848;DHT22;5983;49.966;8.052;2023-07-28T06:15:25;19.20;99.90
11848;DHT22;5983;49.966;8.052;2023-07-28T06:17:52;19.20;99.90
11848;DHT22;5983;49.966;8.052;2023-07-28T06:20:20;19.30;99.90
11848;DHT22;5983;49.966;8.052;2023-07-28T06:22:47;19.30;99.90
11848;DHT22;5983;49.966;8.052;2023-07-28T06:25:13;19.30;99.90
11848;DHT22;5983;49.966;8.052;2023-07-28T06:27:40;19.40;99.90
11848;DHT22;5983;49.966;8.052;2023-07-28T06:30:08;19.40;99.90
11848;DHT22;5983;49.966;8.052;2023-07-28T06:32:35;19.60;99.90
11848;DHT22;5983;49.966;8.052;2023-07-28T06:35:02;19.70;99.90
11848;DHT22;5983;49.966;8.052;2023-07-28T06:37:30;19.80;99.90
11848;DHT22;5983;49.966;8.052;2023-07-28T06:39:57;19.80;99.90
11848;DHT22;5983;49.966;8.052;2023-07-28T06:42:24;19.90;99.90
11848;DHT22;5983;49.966;8.052;2023-07-28T06:44:51;20.10;99.90
11848;DHT22;5983;49.966;8.052;2023-07-28T06:47:18;20.30;99.90
11848;DHT22;5983;49.966;8.052;2023-07-28T06:49:45;20.40;99.90
11848;DHT22;5983;49.966;8.052;2023-07-28T06:52:12;20.50;99.90
11848;DHT22;5983;49.966;8.052;2023-07-28T06:54:40;20.60;99.90
11848;DHT22;5983;49.966;8.052;2023-07-28T06:57:07;20.80;99.90
11848;DHT22;5983;49.966;8.052;2023-07-28T06:59:33;20.80;99.90
11848;DHT22;5983;49.966;8.052;2023-07-28T07:02:00;20.90;99.90
11848;DHT22;5983;49.966;8.052;2023-07-28T07:04:27;21.00;99.90
11848;DHT22;5983;49.966;8.052;2023-07-28T07:06:54;21.00;99.90
11848;DHT22;5983;49.966;8.052;2023-07-28T07:09:21;21.10;99.90
11848;DHT22;5983;49.966;8.052;2023-07-28T07:11:49;21.10;99.90
11848;DHT22;5983;49.966;8.052;2023-07-28T07:14:15;21.10;99.90
11848;DHT22;5983;49.966;8.052;2023-07-28T07:16:42;21.10;99.90
11848;DHT22;5983;49.966;8.052;2023-07-28T07:19:09;21.10;99.90
11848;DHT22;5983;49.966;8.052;2023-07-28T07:21:36;21.10;99.90
11848;DHT22;5983;49.966;8.052;2023-07-28T07:24:03;21.10;99.90
11848;DHT22;5983;49.966;8.052;2023-07-28T07:26:30;21.00;99.90
11848;DHT22;5983;49.966;8.052;2023-07-28T07:28:58;21.00;99.90
11848;DHT22;5983;49.966;8.052;2023-07-28T07:31:25;21.00;99.90
11848;DHT22;5983;49.966;8.052;2023-07-28T07:33:52;20.90;99.90
11848;DHT22;5983;49.966;8.052;2023-07-28T07:36:19;20.90;99.90
11848;DHT22;5983;49.966;8.052;2023-07-28T07:38:46;21.10;99.90
11848;DHT22;5983;49.966;8.052;2023-07-28T07:41:14;21.20;99.90
11848;DHT22;5983;49.966;8.052;2023-07-28T07:43:44;21.30;99.90
11848;DHT22;5983;49.966;8.052;2023-07-28T07:46:13;21.30;99.90
11848;DHT22;5983;49.966;8.052;2023-07-28T07:48:40;21.50;99.90
11848;DHT22;5983;49.966;8.052;2023-07-28T07:51:07;21.60;99.90
11848;DHT22;5983;49.966;8.052;2023-07-28T07:53:34;21.70;99.90
11848;DHT22;5983;49.966;8.052;2023-07-28T07:56:02;21.80;99.90
11848;DHT22;5983;49.966;8.052;2023-07-28T07:58:29;21.80;99.90
11848;DHT22;5983;49.966;8.052;2023-07-28T08:00:56;21.80;99.90
11848;DHT22;5983;49.966;8.052;2023-07-28T08:03:24;21.90;99.90
11848;DHT22;5983;49.966;8.052;2023-07-28T08:05:52;21.90;99.90
11848;DHT22;5983;49.966;8.052;2023-07-28T08:08:19;22.00;99.90
11848;DHT22;5983;49.966;8.052;2023-07-28T08:10:46;22.30;99.90
11848;DHT22;5983;49.966;8.052;2023-07-28T08:13:13;22.60;99.90
11848;DHT22;5983;49.966;8.052;2023-07-28T08:15:41;23.00;99.90
11848;DHT22;5983;49.966;8.052;2023-07-28T08:18:09;23.30;99.90
11848;DHT22;5983;49.966;8.052;2023-07-28T08:20:38;23.40;99.90
11848;DHT22;5983;49.966;8.052;2023-07-28T08:23:05;23.30;99.90
11848;DHT22;5983;49.966;8.052;2023-07-28T08:25:32;23.10;99.90
11848;DHT22;5983;49.966;8.052;2023-07-28T08:27:59;22.90;99.90
11848;DHT22;5983;49.966;8.052;2023-07-28T08:30:26;22.70;99.90
11848;DHT22;5983;49.966;8.052;2023-07-28T08:32:53;22.50;99.90
11848;DHT22;5983;49.966;8.052;2023-07-28T08:35:20;22.30;99.90
11848;DHT22;5983;49.966;8.052;2023-07-28T08:37:48;22.20;99.90
11848;DHT22;5983;49.966;8.052;2023-07-28T08:40:15;22.00;99.90
11848;DHT22;5983;49.966;8.052;2023-07-28T08:42:42;22.10;99.90
11848;DHT22;5983;49.966;8.052;2023-07-28T08:45:10;22.20;99.90
11848;DHT22;5983;49.966;8.052;2023-07-28T08:47:38;22.50;99.90
11848;DHT22;5983;49.966;8.052;2023-07-28T08:50:05;22.90;99.90
11848;DHT22;5983;49.966;8.052;2023-07-28T08:52:32;23.40;99.90
11848;DHT22;5983;49.966;8.052;2023-07-28T08:55:00;23.90;99.90
11848;DHT22;5983;49.966;8.052;2023-07-28T08:57:28;24.30;99.90
11848;DHT22;5983;49.966;8.052;2023-07-28T08:59:55;24.50;99.90
11848;DHT22;5983;49.966;8.052;2023-07-28T09:02:22;24.50;99.90
11848;DHT22;5983;49.966;8.052;2023-07-28T09:04:48;24.40;99.90
11848;DHT22;5983;49.966;8.052;2023-07-28T09:07:15;24.40;99.90
11848;DHT22;5983;49.966;8.052;2023-07-28T09:09:42;24.30;99.90
11848;DHT22;5983;49.966;8.052;2023-07-28T09:12:11;24.20;99.90
11848;DHT22;5983;49.966;8.052;2023-07-28T09:14:38;24.10;99.90
11848;DHT22;5983;49.966;8.052;2023-07-28T09:17:09;24.00;99.90
11848;DHT22;5983;49.966;8.052;2023-07-28T09:22:24;24.00;99.90
11848;DHT22;5983;49.966;8.052;2023-07-28T09:24:51;24.10;99.90
11848;DHT22;5983;49.966;8.052;2023-07-28T09:27:23;24.30;99.90
11848;DHT22;5983;49.966;8.052;2023-07-28T09:29:50;24.60;99.90
11848;DHT22;5983;49.966;8.052;2023-07-28T09:32:25;24.60;99.90
11848;DHT22;5983;49.966;8.052;2023-07-28T09:35:04;24.60;99.90
11848;DHT22;5983;49.966;8.052;2023-07-28T09:37:34;24.40;99.90
11848;DHT22;5983;49.966;8.052;2023-07-28T09:40:02;24.10;99.90
11848;DHT22;5983;49.966;8.052;2023-07-28T09:42:31;23.90;99.90
11848;DHT22;5983;49.966;8.052;2023-07-28T09:44:58;23.70;99.90
11848;DHT22;5983;49.966;8.052;2023-07-28T09:47:25;23.50;99.90
11848;DHT22;5983;49.966;8.052;2023-07-28T09:49:53;23.40;99.90
11848;DHT22;5983;49.966;8.052;2023-07-28T09:52:23;23.20;99.90
11848;DHT22;5983;49.966;8.052;2023-07-28T09:54:54;23.20;99.90
11848;DHT22;5983;49.966;8.052;2023-07-28T09:57:24;23.30;99.90
11848;DHT22;5983;49.966;8.052;2023-07-28T09:59:55;23.40;99.90
11848;DHT22;5983;49.966;8.052;2023-07-28T10:02:23;23.40;99.90
11848;DHT22;5983;49.966;8.052;2023-07-28T10:04:51;23.30;99.90
11848;DHT22;5983;49.966;8.052;2023-07-28T10:07:19;23.10;99.90
11848;DHT22;5983;49.966;8.052;2023-07-28T10:09:47;22.80;99.90
11848;DHT22;5983;49.966;8.052;2023-07-28T10:12:17;22.70;99.90
11848;DHT22;5983;49.966;8.052;2023-07-28T10:14:46;22.60;99.90
11848;DHT22;5983;49.966;8.052;2023-07-28T10:17:16;22.60;99.90
11848;DHT22;5983;49.966;8.052;2023-07-28T10:19:43;22.50;99.90
11848;DHT22;5983;49.966;8.052;2023-07-28T10:22:10;22.40;99.90
11848;DHT22;5983;49.966;8.052;2023-07-28T10:24:50;22.30;99.90
11848;DHT22;5983;49.966;8.052;2023-07-28T10:27:30;22.20;99.90
11848;DHT22;5983;49.966;8.052;2023-07-28T10:29:58;22.20;99.90
11848;DHT22;5983;49.966;8.052;2023-07-28T10:32:28;22.10;99.90
11848;DHT22;5983;49.966;8.052;2023-07-28T10:34:58;22.10;99.90
11848;DHT22;5983;49.966;8.052;2023-07-28T10:37:25;22.00;99.90
11848;DHT22;5983;49.966;8.052;2023-07-28T10:42:50;22.10;99.90
11848;DHT22;5983;49.966;8.052;2023-07-28T10:45:18;22.10;99.90
11848;DHT22;5983;49.966;8.052;2023-07-28T10:47:46;22.20;99.90
11848;DHT22;5983;49.966;8.052;2023-07-28T10:50:14;22.20;99.90
11848;DHT22;5983;49.966;8.052;2023-07-28T10:52:42;22.10;99.90
11848;DHT22;5983;49.966;8.052;2023-07-28T10:55:13;22.00;99.90
11848;DHT22;5983;49.966;8.052;2023-07-28T10:57:40;22.00;99.90
11848;DHT22;5983;49.966;8.052;2023-07-28T11:00:08;22.00;99.90
11848;DHT22;5983;49.966;8.052;2023-07-28T11:02:38;21.90;99.90
11848;DHT22;5983;49.966;8.052;2023-07-28T11:05:09;21.90;99.90
11848;DHT22;5983;49.966;8.052;2023-07-28T11:07:38;21.90;99.90
11848;DHT22;5983;49.966;8.052;2023-07-28T11:10:07;21.90;99.90
11848;DHT22;5983;49.966;8.052;2023-07-28T11:12:34;21.80;99.90
11848;DHT22;5983;49.966;8.052;2023-07-28T11:15:01;21.70;99.90
11848;DHT22;5983;49.966;8.052;2023-07-28T11:17:28;21.50;99.90
11848;DHT22;5983;49.966;8.052;2023-07-28T11:19:55;21.40;99.90
11848;DHT22;5983;49.966;8.052;2023-07-28T11:22:23;21.40;99.90
11848;DHT22;5983;49.966;8.052;2023-07-28T11:24:53;21.30;99.90
11848;DHT22;5983;49.966;8.052;2023-07-28T11:27:20;21.30;99.90
11848;DHT22;5983;49.966;8.052;2023-07-28T11:29:46;21.20;99.90
11848;DHT22;5983;49.966;8.052;2023-07-28T11:32:15;21.20;99.90
11848;DHT22;5983;49.966;8.052;2023-07-28T11:34:43;21.20;99.90
11848;DHT22;5983;49.966;8.052;2023-07-28T11:37:10;21.20;99.90
11848;DHT22;5983;49.966;8.052;2023-07-28T11:39:40;21.30;99.90
11848;DHT22;5983;49.966;8.052;2023-07-28T11:42:07;21.30;99.90
11848;DHT22;5983;49.966;8.052;2023-07-28T11:44:36;21.40;99.90
11848;DHT22;5983;49.966;8.052;2023-07-28T11:47:05;21.50;99.90
11848;DHT22;5983;49.966;8.052;2023-07-28T11:49:32;21.50;99.90
11848;DHT22;5983;49.966;8.052;2023-07-28T11:51:59;21.60;99.90
11848;DHT22;5983;49.966;8.052;2023-07-28T11:54:27;21.70;99.90
11848;DHT22;5983;49.966;8.052;2023-07-28T11:56:57;21.80;99.90
11848;DHT22;5983;49.966;8.052;2023-07-28T11:59:24;22.00;99.90
11848;DHT22;5983;49.966;8.052;2023-07-28T12:01:52;22.20;99.90
11848;DHT22;5983;49.966;8.052;2023-07-28T12:04:21;22.40;99.90
11848;DHT22;5983;49.966;8.052;2023-07-28T12:07:06;22.60;99.90
11848;DHT22;5983;49.966;8.052;2023-07-28T12:09:47;22.70;99.90
11848;DHT22;5983;49.966;8.052;2023-07-28T12:12:18;22.70;99.90
11848;DHT22;5983;49.966;8.052;2023-07-28T12:14:46;22.70;99.90
11848;DHT22;5983;49.966;8.052;2023-07-28T12:17:14;22.60;99.90
11848;DHT22;5983;49.966;8.052;2023-07-28T12:19:54;22.60;99.90
11848;DHT22;5983;49.966;8.052;2023-07-28T12:22:22;22.40;99.90
11848;DHT22;5983;49.966;8.052;2023-07-28T12:24:48;22.30;99.90
11848;DHT22;5983;49.966;8.052;2023-07-28T12:27:15;22.20;99.90
11848;DHT22;5983;49.966;8.052;2023-07-28T12:29:43;22.00;99.90
11848;DHT22;5983;49.966;8.052;2023-07-28T12:32:10;22.00;99.90
11848;DHT22;5983;49.966;8.052;2023-07-28T12:34:37;21.90;99.90
11848;DHT22;5983;49.966;8.052;2023-07-28T12:37:05;21.90;99.90
11848;DHT22;5983;49.966;8.052;2023-07-28T12:39:33;22.00;99.90
11848;DHT22;5983;49.966;8.052;2023-07-28T12:42:02;22.20;99.90
11848;DHT22;5983;49.966;8.052;2023-07-28T12:44:29;22.40;99.90
11848;DHT22;5983;49.966;8.052;2023-07-28T12:46:57;22.60;99.90
11848;DHT22;5983;49.966;8.052;2023-07-28T12:49:24;22.80;99.90
11848;DHT22;5983;49.966;8.052;2023-07-28T12:51:51;22.90;99.90
11848;DHT22;5983;49.966;8.052;2023-07-28T12:54:18;22.90;99.90
11848;DHT22;5983;49.966;8.052;2023-07-28T12:56:45;23.10;99.90
11848;DHT22;5983;49.966;8.052;2023-07-28T12:59:11;23.10;99.90
11848;DHT22;5983;49.966;8.052;2023-07-28T13:01:38;23.20;99.90
11848;DHT22;5983;49.966;8.052;2023-07-28T13:04:06;23.20;99.90
11848;DHT22;5983;49.966;8.052;2023-07-28T13:06:33;23.30;99.90
11848;DHT22;5983;49.966;8.052;2023-07-28T13:09:01;23.30;99.90
11848;DHT22;5983;49.966;8.052;2023-07-28T13:11:29;23.30;99.90
11848;DHT22;5983;49.966;8.052;2023-07-28T13:13:55;23.30;99.90
11848;DHT22;5983;49.966;8.052;2023-07-28T13:16:22;23.30;99.90
11848;DHT22;5983;49.966;8.052;2023-07-28T13:18:49;23.20;99.90
11848;DHT22;5983;49.966;8.052;2023-07-28T13:21:17;23.20;99.90
11848;DHT22;5983;49.966;8.052;2023-07-28T13:23:44;23.10;99.90
11848;DHT22;5983;49.966;8.052;2023-07-28T13:26:11;23.00;99.90
11848;DHT22;5983;49.966;8.052;2023-07-28T13:28:37;23.00;99.90
11848;DHT22;5983;49.966;8.052;2023-07-28T13:31:08;23.00;99.90
11848;DHT22;5983;49.966;8.052;2023-07-28T13:33:35;23.00;99.90
11848;DHT22;5983;49.966;8.052;2023-07-28T13:36:02;23.00;99.90
11848;DHT22;5983;49.966;8.052;2023-07-28T13:38:33;22.90;99.90
11848;DHT22;5983;49.966;8.052;2023-07-28T13:41:00;22.90;99.90
11848;DHT22;5983;49.966;8.052;2023-07-28T13:43:28;22.80;99.90
11848;DHT22;5983;49.966;8.052;2023-07-28T13:45:54;22.80;99.90
11848;DHT22;5983;49.966;8.052;2023-07-28T13:48:21;22.80;99.90
11848;DHT22;5983;49.966;8.052;2023-07-28T13:50:48;22.80;99.90
11848;DHT22;5983;49.966;8.052;2023-07-28T13:53:14;22.80;99.90
11848;DHT22;5983;49.966;8.052;2023-07-28T13:55:43;22.80;99.90
11848;DHT22;5983;49.966;8.052;2023-07-28T13:58:09;22.90;99.90
11848;DHT22;5983;49.966;8.052;2023-07-28T14:00:36;22.90;99.90
11848;DHT22;5983;49.966;8.052;2023-07-28T14:03:03;22.90;99.90
11848;DHT22;5983;49.966;8.052;2023-07-28T14:05:29;23.00;99.90
11848;DHT22;5983;49.966;8.052;2023-07-28T14:07:56;22.90;99.90
11848;DHT22;5983;49.966;8.052;2023-07-28T14:10:23;22.90;99.90
11848;DHT22;5983;49.966;8.052;2023-07-28T14:12:51;22.90;99.90
11848;DHT22;5983;49.966;8.052;2023-07-28T14:15:18;22.80;99.90
11848;DHT22;5983;49.966;8.052;2023-07-28T14:17:44;22.90;99.90
11848;DHT22;5983;49.966;8.052;2023-07-28T14:20:11;22.90;99.90
11848;DHT22;5983;49.966;8.052;2023-07-28T14:22:38;22.90;99.90
11848;DHT22;5983;49.966;8.052;2023-07-28T14:25:05;23.00;99.90
11848;DHT22;5983;49.966;8.052;2023-07-28T14:27:32;23.00;99.90
11848;DHT22;5983;49.966;8.052;2023-07-28T14:30:00;23.00;99.90
11848;DHT22;5983;49.966;8.052;2023-07-28T14:32:27;23.00;99.90
11848;DHT22;5983;49.966;8.052;2023-07-28T14:34:54;23.00;99.90
11848;DHT22;5983;49.966;8.052;2023-07-28T14:37:21;23.10;99.90
11848;DHT22;5983;49.966;8.052;2023-07-28T14:39:48;23.20;99.90
11848;DHT22;5983;49.966;8.052;2023-07-28T14:42:14;23.30;99.90
11848;DHT22;5983;49.966;8.052;2023-07-28T14:44:41;23.30;99.90
11848;DHT22;5983;49.966;8.052;2023-07-28T14:47:09;23.30;99.90
11848;DHT22;5983;49.966;8.052;2023-07-28T14:49:36;23.20;99.90
11848;DHT22;5983;49.966;8.052;2023-07-28T14:52:03;23.10;99.90
11848;DHT22;5983;49.966;8.052;2023-07-28T14:54:30;23.20;99.90
11848;DHT22;5983;49.966;8.052;2023-07-28T14:56:57;23.10;99.90
11848;DHT22;5983;49.966;8.052;2023-07-28T14:59:23;23.10;99.90
11848;DHT22;5983;49.966;8.052;2023-07-28T15:01:50;23.10;99.90
11848;DHT22;5983;49.966;8.052;2023-07-28T15:04:18;23.10;99.90
11848;DHT22;5983;49.966;8.052;2023-07-28T15:06:45;23.10;99.90
11848;DHT22;5983;49.966;8.052;2023-07-28T15:09:12;23.20;99.90
11848;DHT22;5983;49.966;8.052;2023-07-28T15:11:39;23.10;99.90
11848;DHT22;5983;49.966;8.052;2023-07-28T15:14:06;23.20;99.90
11848;DHT22;5983;49.966;8.052;2023-07-28T15:16:32;23.20;99.90
11848;DHT22;5983;49.966;8.052;2023-07-28T15:18:59;23.20;99.90
11848;DHT22;5983;49.966;8.052;2023-07-28T15:21:27;23.30;99.90
11848;DHT22;5983;49.966;8.052;2023-07-28T15:23:54;23.30;99.90
11848;DHT22;5983;49.966;8.052;2023-07-28T15:26:21;23.40;99.90
11848;DHT22;5983;49.966;8.052;2023-07-28T15:28:48;23.40;99.90
11848;DHT22;5983;49.966;8.052;2023-07-28T15:31:15;23.40;99.90
11848;DHT22;5983;49.966;8.052;2023-07-28T15:33:41;23.30;99.90
11848;DHT22;5983;49.966;8.052;2023-07-28T15:36:08;23.20;99.90
11848;DHT22;5983;49.966;8.052;2023-07-28T15:38:36;23.20;99.90
11848;DHT22;5983;49.966;8.052;2023-07-28T15:41:03;23.20;99.90
11848;DHT22;5983;49.966;8.052;2023-07-28T15:43:30;23.30;99.90
11848;DHT22;5983;49.966;8.052;2023-07-28T15:45:56;23.20;99.90
11848;DHT22;5983;49.966;8.052;2023-07-28T15:48:23;23.20;99.90
11848;DHT22;5983;49.966;8.052;2023-07-28T15:50:50;23.20;99.90
11848;DHT22;5983;49.966;8.052;2023-07-28T15:53:18;23.30;99.90
11848;DHT22;5983;49.966;8.052;2023-07-28T15:55:46;23.30;99.90